M I D A S
Marine Information and Data Acquisition System
Tripno 691 of the Zeeleeuw from 2004-04-29 07:42:40 to 2004-04-29 16:05:36
Back to CruiseResearch ActivitiesStationsMapUnderway DataData graphs

EquipmentUnitsComments
TimeDGPSUTC
LatitudeDGPSDM.mWGS84
LongitudeDGPSDM.mWGS84
SpeedMeteo Stationm/sRelative wind speed
DirectionMeteo StationdegRelative wind direction
TemperatureMeteo Stationdeg CelciusAir temperature
PressureMeteo StationPaAtmospheric pressure
HumidityMeteo Station%Relative humidity
Missing or incorrect values are displayed as -999
Metereological data collected by the RV Zeeleeuw from 2004-04-29 07:42:40 to 2004-04-29 16:05:36
                                                                                    Next 1000 lines
Time Latitude Longitude Speed Direction Temperature Pressure Humidity
2004-04-29 07:42:47 51°14.352 2°54.546 9.3 2 10.9 100040 96
2004-04-29 07:42:52 51°14.345 2°54.52 9.2 3 10.8 100040 96
2004-04-29 07:42:58 51°14.337 2°54.489 9.6   10.8 100040 96
2004-04-29 07:43:02 51°14.332 2°54.469 9.7   10.8 100040 96
2004-04-29 07:43:07 51°14.326 2°54.443 9.3 2 10.8 100040 96
2004-04-29 07:43:12 51°14.319 2°54.418 9.7 2 10.8 100030 96
2004-04-29 07:43:18 51°14.31 2°54.387 9.3 4 10.8 100030 96
2004-04-29 07:43:22 51°14.304 2°54.367 9.8 1 10.8 100040 96
2004-04-29 07:43:27 51°14.297 2°54.342 10.1 360 10.8 100040 96
2004-04-29 07:43:32 51°14.289 2°54.317 9.6 2 10.8 100040 96
2004-04-29 07:43:38 51°14.281 2°54.287 10.1 359 10.8 100040 96
2004-04-29 07:43:43 51°14.273 2°54.262 9.8 3 10.8 100040 96
2004-04-29 07:43:48 51°14.266 2°54.237 10.2 360 10.8 100040 96
2004-04-29 07:43:52 51°14.26 2°54.216 10.2 3 10.8 100040 96
2004-04-29 07:43:56 51°14.254 2°54.196 10 8 10.8 100040 96
2004-04-29 07:44:02 51°14.246 2°54.166 9.8 4 10.8 100040 96
2004-04-29 07:44:07 51°14.238 2°54.141 9.6 3 10.8 100040 96
2004-04-29 07:44:12 51°14.23 2°54.116 9.4 3 10.8 100040 96
2004-04-29 07:44:18 51°14.221 2°54.086 9.4 5 10.8 100040 96
2004-04-29 07:44:22 51°14.215 2°54.066 9.2 360 10.8 100040 96
2004-04-29 07:44:27 51°14.207 2°54.041 8.9 5 10.8 100040 96
2004-04-29 07:44:32 51°14.199 2°54.016 9.3 3 10.8 100040 96
2004-04-29 07:44:37 51°14.192 2°53.992 9.5 5 10.8 100040 96
2004-04-29 07:44:43 51°14.182 2°53.962 9.8 358 10.8 100040 96
2004-04-29 07:44:48 51°14.175 2°53.937 9.5 1 10.8 100040 96
2004-04-29 07:44:52 51°14.169 2°53.917 9.5 2 10.8 100050 96
2004-04-29 07:44:58 51°14.16 2°53.887 9.6 1 10.8 100050 96
2004-04-29 07:45:03 51°14.152 2°53.862 9.6 3 10.8 100050 96
2004-04-29 07:45:08 51°14.145 2°53.837 9 1 10.8 100050 96
2004-04-29 07:45:12 51°14.138 2°53.817 9.9 3 10.8 100050 96
2004-04-29 07:45:16 51°14.133 2°53.796 10 2 10.8 100050 96
2004-04-29 07:45:22 51°14.123 2°53.767 9.5 4 10.8 100040 96
2004-04-29 07:45:28 51°14.115 2°53.737 9.4 3 10.8 100040 96
2004-04-29 07:45:32 51°14.108 2°53.717 9.3 3 10.8 100040 96
2004-04-29 07:45:38 51°14.1 2°53.686 9.4 2 10.8 100040 96
2004-04-29 07:45:42 51°14.093 2°53.667 9.8 7 10.8 100050 96
2004-04-29 07:45:46 51°14.088 2°53.646 10.3 360 10.8 100050 96
2004-04-29 07:45:52 51°14.079 2°53.616 9.9 6 10.8 100040 96
2004-04-29 07:45:56 51°14.073 2°53.596 10 2 10.8 100040 96
2004-04-29 07:46:03 51°14.062 2°53.56 9.4 3 10.8 100040 96
2004-04-29 07:46:08 51°14.054 2°53.536 9.8 3 10.8 100040 96
2004-04-29 07:46:12 51°14.048 2°53.515 9.5 4 10.8 100040 96
2004-04-29 07:46:18 51°14.039 2°53.486 9.8 1 10.8 100040 96
2004-04-29 07:46:22 51°14.033 2°53.465 9.8 2 10.8 100040 96
2004-04-29 07:46:27 51°14.025 2°53.44 10 2 10.8 100040 96
2004-04-29 07:46:32 51°14.018 2°53.415 9.7 4 10.8 100040 96
2004-04-29 07:46:38 51°14.009 2°53.385 10.1 360 10.8 100040 96
2004-04-29 07:46:42 51°14.003 2°53.365 9.5 2 10.8 100040 96
2004-04-29 07:46:47 51°13.995 2°53.34 9.9 3 10.8 100040 96
2004-04-29 07:46:52 51°13.988 2°53.315 9.3 2 10.8 100040 96
2004-04-29 07:46:58 51°13.978 2°53.284 10.2 4 10.8 100040 96
2004-04-29 07:47:02 51°13.972 2°53.264 8.9 3 10.8 100040 96
2004-04-29 07:47:07 51°13.965 2°53.239 9.9 3 10.8 100040 96
2004-04-29 07:47:12 51°13.957 2°53.214 9.7 4 10.8 100040 95
2004-04-29 07:47:18 51°13.948 2°53.184 9.1 4 10.8 100040 95
2004-04-29 07:47:22 51°13.943 2°53.163 9.6 5 10.8 100040 96
2004-04-29 07:47:27 51°13.935 2°53.138 9.3 3 10.8 100040 96
2004-04-29 07:47:32 51°13.928 2°53.112 9.8 3 10.8 100040 96
2004-04-29 07:47:37 51°13.92 2°53.088 9.2 2 10.8 100040 96
2004-04-29 07:47:42 51°13.913 2°53.062 9.6 2 10.8 100040 95
2004-04-29 07:47:47 51°13.906 2°53.037 9.2 4 10.8 100040 95
2004-04-29 07:47:52 51°13.898 2°53.012 9.8 1 10.8 100040 95
2004-04-29 07:47:58 51°13.89 2°52.981 9.6 1 10.8 100040 95
2004-04-29 07:48:02 51°13.884 2°52.961 9.7 3 10.8 100040 95
2004-04-29 07:48:07 51°13.876 2°52.935 9.6 1 10.8 100040 95
2004-04-29 07:48:12 51°13.869 2°52.91 9 4 10.8 100040 95
2004-04-29 07:48:18 51°13.86 2°52.88 9.9 2 10.8 100040 95
2004-04-29 07:48:22 51°13.854 2°52.859 9.8 2 10.8 100040 95
2004-04-29 07:48:28 51°13.845 2°52.829 9.6 1 10.8 100040 95
2004-04-29 07:48:32 51°13.839 2°52.808 10   10.8 100040 95
2004-04-29 07:48:38 51°13.831 2°52.777 9.3 1 10.8 100040 95
2004-04-29 07:48:42 51°13.825 2°52.757 9 359 10.8 100040 95
2004-04-29 07:48:48 51°13.816 2°52.726 9.3 1 10.8 100040 95
2004-04-29 07:48:52 51°13.811 2°52.706 9 1 10.8 100040 95
2004-04-29 07:48:58 51°13.802 2°52.675 9.1 1 10.8 100040 95
2004-04-29 07:49:02 51°13.796 2°52.655 9.3 6 10.8 100030 95
2004-04-29 07:49:07 51°13.789 2°52.629 9.2 3 10.8 100030 95
2004-04-29 07:49:12 51°13.781 2°52.604 9 1 10.8 100030 95
2004-04-29 07:49:18 51°13.772 2°52.573 9.2 7 10.8 100030 95
2004-04-29 07:49:22 51°13.766 2°52.554 9.5 2 10.8 100040 95
2004-04-29 07:49:27 51°13.758 2°52.528 9.5 5 10.8 100040 95
2004-04-29 07:49:32 51°13.75 2°52.503 9.5 7 10.8 100030 95
2004-04-29 07:49:38 51°13.741 2°52.473 9.8 3 10.8 100030 95
2004-04-29 07:49:42 51°13.734 2°52.454 9.3 4 10.8 100030 95
2004-04-29 07:49:47 51°13.727 2°52.428 9.4 3 10.8 100030 95
2004-04-29 07:49:52 51°13.719 2°52.404 9.6 4 10.8 100040 95
2004-04-29 07:49:58 51°13.709 2°52.374 9.6 3 10.8 100040 95
2004-04-29 07:50:02 51°13.702 2°52.354 9.4 5 10.8 100030 95
2004-04-29 07:50:07 51°13.695 2°52.329 8.9 4 10.8 100030 95
2004-04-29 07:50:12 51°13.686 2°52.305 9.2 4 10.8 100030 95
2004-04-29 07:50:16 51°13.68 2°52.284 9.2   10.8 100030 95
2004-04-29 07:50:22 51°13.671 2°52.254 8.8 5 10.8 100040 95
2004-04-29 07:50:26 51°13.664 2°52.234 8.9 5 10.8 100040 95
2004-04-29 07:50:32 51°13.655 2°52.204 9.7 6 10.8 100040 95
2004-04-29 07:50:38 51°13.645 2°52.175 9.5 5 10.8 100040 95
2004-04-29 07:50:42 51°13.639 2°52.155 9.2 2 10.8 100040 95
2004-04-29 07:50:48 51°13.629 2°52.125 9.4 1 10.8 100040 95
2004-04-29 07:50:52 51°13.623 2°52.105 9.1 4 10.8 100030 95
2004-04-29 07:50:58 51°13.614 2°52.075 9.3 7 10.8 100030 95
2004-04-29 07:51:02 51°13.607 2°52.056 9.9 4 10.8 100040 95
2004-04-29 07:51:08 51°13.597 2°52.026 10.1 2 10.8 100040 95
2004-04-29 07:51:12 51°13.591 2°52.006 9.2 6 10.8 100040 95
2004-04-29 07:51:18 51°13.582 2°51.975 9.4   10.8 100040 95
2004-04-29 07:51:22 51°13.575 2°51.956 9.8 1 10.8 100030 95
2004-04-29 07:51:26 51°13.569 2°51.935 9.1 3 10.8 100030 95
2004-04-29 07:51:32 51°13.559 2°51.906 9.3 3 10.8 100040 95
2004-04-29 07:51:38 51°13.55 2°51.876 9.2 358 10.8 100040 95
2004-04-29 07:51:42 51°13.544 2°51.856 9.1   10.8 100030 95
2004-04-29 07:51:47 51°13.536 2°51.831 9.4 1 10.8 100030 95
2004-04-29 07:51:52 51°13.528 2°51.806 9.2 2 10.8 100030 95
2004-04-29 07:51:58 51°13.518 2°51.777 9.5 3 10.8 100030 95
2004-04-29 07:52:02 51°13.512 2°51.757 8.9 2 10.8 100030 95
2004-04-29 07:52:07 51°13.504 2°51.732 9.2 2 10.8 100030 95
2004-04-29 07:52:12 51°13.496 2°51.707 9.1 3 10.8 100030 95
2004-04-29 07:52:17 51°13.488 2°51.682 9.3 4 10.8 100030 95
2004-04-29 07:52:22 51°13.481 2°51.657 9.4 3 10.8 100040 95
2004-04-29 07:52:28 51°13.472 2°51.627 9.2 1 10.8 100040 95
2004-04-29 07:52:32 51°13.465 2°51.608 9.2 1 10.8 100030 95
2004-04-29 07:52:37 51°13.457 2°51.583 9.5 2 10.8 100030 95
2004-04-29 07:52:43 51°13.446 2°51.554 9.1 4 10.8 100030 95
2004-04-29 07:52:47 51°13.44 2°51.534 9.6 2 10.8 100030 95
2004-04-29 07:52:52 51°13.432 2°51.51 8.8 4 10.8 100030 95
2004-04-29 07:52:58 51°13.422 2°51.48 9.4 3 10.8 100030 95
2004-04-29 07:53:02 51°13.415 2°51.461 9.3 5 10.8 100030 95
2004-04-29 07:53:07 51°13.407 2°51.437 9.5 360 10.8 100030 95
2004-04-29 07:53:12 51°13.398 2°51.413 9.3 4 10.8 100030 95
2004-04-29 07:53:18 51°13.388 2°51.383 9.6 2 10.8 100030 95
2004-04-29 07:53:22 51°13.381 2°51.364 9.7 1 10.8 100030 95
2004-04-29 07:53:26 51°13.375 2°51.345 9.4 359 10.8 100030 95
2004-04-29 07:53:32 51°13.364 2°51.315 9.2 2 10.8 100030 95
2004-04-29 07:53:38 51°13.354 2°51.286 8.8 3 10.8 100030 95
2004-04-29 07:53:42 51°13.347 2°51.267 9.3 2 10.8 100030 95
2004-04-29 07:53:47 51°13.339 2°51.243 9.1 5 10.8 100030 95
2004-04-29 07:53:52 51°13.33 2°51.219 9.3 4 10.8 100040 95
2004-04-29 07:53:58 51°13.32 2°51.189 9.1 2 10.8 100040 95
2004-04-29 07:54:02 51°13.314 2°51.169 9.3 5 10.8 100030 95
2004-04-29 07:54:08 51°13.304 2°51.14 9.3 1 10.8 100030 95
2004-04-29 07:54:12 51°13.298 2°51.12 9.6 5 10.8 100030 95
2004-04-29 07:54:18 51°13.288 2°51.09 9.2 5 10.8 100030 95
2004-04-29 07:54:22 51°13.282 2°51.07 9 1 10.8 100030 95
2004-04-29 07:54:27 51°13.274 2°51.046 9.1 4 10.8 100030 95
2004-04-29 07:54:32 51°13.266 2°51.021 9.3 3 10.8 100030 95
2004-04-29 07:54:38 51°13.256 2°50.992 9.5 6 10.8 100030 95
2004-04-29 07:54:42 51°13.249 2°50.972 9.6 4 10.8 100030 95
2004-04-29 07:54:48 51°13.239 2°50.943 9.3 4 10.8 100030 95
2004-04-29 07:54:52 51°13.232 2°50.924 9.3 2 10.8 100030 95
2004-04-29 07:54:56 51°13.225 2°50.904 8.7 7 10.8 100030 95
2004-04-29 07:55:02 51°13.215 2°50.875 9.5 3 10.8 100030 95
2004-04-29 07:55:08 51°13.205 2°50.845 9.3 4 10.8 100030 95
2004-04-29 07:55:12 51°13.198 2°50.826 9.4 2 10.7 100030 95
2004-04-29 07:55:18 51°13.187 2°50.796 9.1 2 10.7 100030 95
2004-04-29 07:55:22 51°13.181 2°50.777 8.8 360 10.8 100030 95
2004-04-29 07:55:28 51°13.17 2°50.748 9.1   10.8 100030 95
2004-04-29 07:55:32 51°13.164 2°50.728 9.4 1 10.8 100040 95
2004-04-29 07:55:38 51°13.154 2°50.698 9.5 1 10.8 100040 95
2004-04-29 07:55:42 51°13.146 2°50.679 9.1 1 10.8 100030 95
2004-04-29 07:55:48 51°13.137 2°50.649 9.4 2 10.8 100030 95
2004-04-29 07:55:52 51°13.13 2°50.63 9.4 3 10.8 100030 95
2004-04-29 07:55:58 51°13.119 2°50.601 9.5 2 10.8 100030 95
2004-04-29 07:56:02 51°13.112 2°50.581 9.2 4 10.8 100030 95
2004-04-29 07:56:07 51°13.104 2°50.556 9.2   10.8 100030 95
2004-04-29 07:56:12 51°13.095 2°50.532 8.7 1 10.8 100030 95
2004-04-29 07:56:18 51°13.085 2°50.502 9.3 2 10.8 100030 95
2004-04-29 07:56:22 51°13.078 2°50.483 9.1 4 10.8 100030 95
2004-04-29 07:56:27 51°13.07 2°50.458 9.8 3 10.8 100030 95
2004-04-29 07:56:32 51°13.062 2°50.433 9.5 360 10.8 100040 95
2004-04-29 07:56:38 51°13.052 2°50.403 9.4 6 10.8 100040 95
2004-04-29 07:56:42 51°13.045 2°50.384 9.8 3 10.8 100030 95
2004-04-29 07:56:48 51°13.035 2°50.354 9.7 2 10.8 100030 95
2004-04-29 07:56:52 51°13.028 2°50.335 9.4 5 10.8 100040 95
2004-04-29 07:56:58 51°13.018 2°50.305 9.4 3 10.8 100040 95
2004-04-29 07:57:02 51°13.011 2°50.285 10.1 2 10.7 100030 95
2004-04-29 07:57:08 51°13.001 2°50.256 9.4 4 10.7 100030 95
2004-04-29 07:57:12 51°12.994 2°50.236 9.1 4 10.7 100040 95
2004-04-29 07:57:17 51°12.986 2°50.212 9.5 3 10.7 100040 95
2004-04-29 07:57:22 51°12.977 2°50.187 9.6 2 10.7 100040 95
2004-04-29 07:57:27 51°12.969 2°50.163 9.6 2 10.7 100040 95
2004-04-29 07:57:32 51°12.96 2°50.138 9.5 2 10.7 100030 95
2004-04-29 07:57:38 51°12.95 2°50.108 9.4   10.7 100030 95
2004-04-29 07:57:42 51°12.943 2°50.088 9.2 1 10.7 100030 95
2004-04-29 07:57:46 51°12.937 2°50.069 8.9 2 10.7 100030 95
2004-04-29 07:57:52 51°12.927 2°50.039 8.9 2 10.7 100030 95
2004-04-29 07:57:58 51°12.917 2°50.009 9.1 1 10.7 100030 95
2004-04-29 07:58:02 51°12.911 2°49.989 9 2 10.7 100020 95
2004-04-29 07:58:08 51°12.901 2°49.959 9.4   10.7 100020 95
2004-04-29 07:58:12 51°12.894 2°49.94 8.8 4 10.7 100030 95
2004-04-29 07:58:18 51°12.885 2°49.91 9.3 3 10.7 100030 95
2004-04-29 07:58:22 51°12.878 2°49.89 9.3 2 10.7 100030 95
2004-04-29 07:58:27 51°12.87 2°49.865 8.9 5 10.7 100030 95
2004-04-29 07:58:32 51°12.861 2°49.84 9.2 5 10.7 100030 95
2004-04-29 07:58:38 51°12.851 2°49.811 9.7 5 10.7 100030 95
2004-04-29 07:58:42 51°12.845 2°49.791 9.7 1 10.8 100030 95
2004-04-29 07:58:48 51°12.834 2°49.761 9.2 2 10.8 100030 95
2004-04-29 07:58:52 51°12.827 2°49.742 9.2 3 10.7 100030 95
2004-04-29 07:58:58 51°12.817 2°49.712 9.1 1 10.7 100030 95
2004-04-29 07:59:02 51°12.81 2°49.693 8.8 2 10.7 100030 95
2004-04-29 07:59:07 51°12.802 2°49.668 8.7 1 10.7 100030 95
2004-04-29 07:59:12 51°12.793 2°49.644 9.1 1 10.7 100020 95
2004-04-29 07:59:18 51°12.784 2°49.614 9.4   10.7 100020 95
2004-04-29 07:59:22 51°12.777 2°49.594 9.2 4 10.7 100030 95
2004-04-29 07:59:27 51°12.768 2°49.569 9 3 10.7 100030 95
2004-04-29 07:59:32 51°12.76 2°49.545 8.9 5 10.7 100030 95
2004-04-29 07:59:38 51°12.75 2°49.515 9.1 5 10.7 100030 95
2004-04-29 07:59:42 51°12.743 2°49.496 9.3 3 10.7 100030 95
2004-04-29 07:59:47 51°12.735 2°49.471 9.2 6 10.7 100030 95
2004-04-29 07:59:52 51°12.726 2°49.446 9.6 5 10.7 100030 95
2004-04-29 07:59:58 51°12.717 2°49.416 9.2 5 10.7 100030 95
2004-04-29 08:00:03 51°12.708 2°49.391 9.3 7 10.7 100030 95
2004-04-29 08:00:08 51°12.7 2°49.366 8.9 1 10.7 100030 95
2004-04-29 08:00:12 51°12.694 2°49.346 9.3 3 10.7 100030 95
2004-04-29 08:00:18 51°12.684 2°49.315 9 5 10.7 100030 95
2004-04-29 08:00:20 51°12.681 2°49.305 8.7 1 10.7 100030 95
2004-04-29 08:00:27 51°12.67 2°49.27 9.6 3 10.7 100030 95
2004-04-29 08:00:32 51°12.661 2°49.245 9.3 5 10.7 100030 95
2004-04-29 08:00:37 51°12.654 2°49.22 8.8 5 10.7 100030 95
2004-04-29 08:00:42 51°12.645 2°49.195 9.2 8 10.7 100030 95
2004-04-29 08:00:47 51°12.637 2°49.17 9.4 7 10.7 100030 95
2004-04-29 08:00:52 51°12.629 2°49.145 9.5 9 10.7 100030 95
2004-04-29 08:00:58 51°12.619 2°49.115 9.5 4 10.7 100030 95
2004-04-29 08:01:02 51°12.613 2°49.094 9.7 7 10.7 100030 95
2004-04-29 08:01:08 51°12.603 2°49.065 9.9 4 10.7 100030 95
2004-04-29 08:01:12 51°12.597 2°49.045 9.4 3 10.7 100030 95
2004-04-29 08:01:17 51°12.589 2°49.019 9.1 1 10.7 100030 95
2004-04-29 08:01:22 51°12.581 2°48.995 9 3 10.7 100040 95
2004-04-29 08:01:28 51°12.571 2°48.965 9.5 5 10.7 100040 95
2004-04-29 08:01:32 51°12.564 2°48.945 9.6 4 10.7 100040 95
2004-04-29 08:01:38 51°12.555 2°48.915 9.6 6 10.7 100040 95
2004-04-29 08:01:42 51°12.548 2°48.894 9 6 10.7 100030 95
2004-04-29 08:01:48 51°12.539 2°48.864 9.2 7 10.7 100030 95
2004-04-29 08:01:52 51°12.533 2°48.843 9.7 5 10.7 100040 95
2004-04-29 08:01:57 51°12.525 2°48.818 9.4 8 10.7 100040 95
2004-04-29 08:02:03 51°12.516 2°48.788 9.7 7 10.7 100030 95
2004-04-29 08:02:08 51°12.508 2°48.762 9.4 8 10.7 100030 95
2004-04-29 08:02:12 51°12.502 2°48.742 9 7 10.7 100040 95
2004-04-29 08:02:18 51°12.493 2°48.711 9.5 7 10.7 100040 95
2004-04-29 08:02:22 51°12.487 2°48.691 9.4 7 10.7 100030 95
2004-04-29 08:02:27 51°12.479 2°48.666 9.5 5 10.7 100030 95
2004-04-29 08:02:32 51°12.471 2°48.64 9.4 4 10.7 100030 95
2004-04-29 08:02:37 51°12.464 2°48.614 9.8 5 10.7 100030 95
2004-04-29 08:02:42 51°12.457 2°48.588 9.6 6 10.7 100030 95
2004-04-29 08:02:48 51°12.448 2°48.557 9.3 3 10.7 100030 95
2004-04-29 08:02:52 51°12.442 2°48.537 9.8 3 10.7 100040 95
2004-04-29 08:02:58 51°12.434 2°48.505 9.8 3 10.7 100040 95
2004-04-29 08:03:02 51°12.428 2°48.485 9.1 4 10.7 100030 95
2004-04-29 08:03:06 51°12.422 2°48.464 9.6 4 10.7 100030 95
2004-04-29 08:03:12 51°12.414 2°48.433 9.2 3 10.7 100030 95
2004-04-29 08:03:18 51°12.405 2°48.402 9 4 10.7 100030 95
2004-04-29 08:03:23 51°12.399 2°48.376 9.4 8 10.7 100030 95
2004-04-29 08:03:27 51°12.392 2°48.356 8.9 7 10.7 100030 95
2004-04-29 08:03:32 51°12.386 2°48.33 10.1 9 10.7 100040 95
2004-04-29 08:03:37 51°12.378 2°48.304 9.8 5 10.7 100040 95
2004-04-29 08:03:42 51°12.371 2°48.278 9.3 4 10.7 100040 95
2004-04-29 08:03:47 51°12.364 2°48.252 9.4 5 10.7 100040 95
2004-04-29 08:03:52 51°12.357 2°48.226 9.7 5 10.6 100040 95
2004-04-29 08:03:58 51°12.348 2°48.195 10.2 8 10.6 100040 95
2004-04-29 08:04:02 51°12.343 2°48.174 9.3 3 10.6 100040 95
2004-04-29 08:04:08 51°12.334 2°48.143 9.7 3 10.6 100040 95
2004-04-29 08:04:12 51°12.329 2°48.122 9 4 10.6 100040 95
2004-04-29 08:04:18 51°12.32 2°48.091 9.5 5 10.6 100040 95
2004-04-29 08:04:22 51°12.314 2°48.07 9.9 8 10.6 100030 95
2004-04-29 08:04:28 51°12.306 2°48.039 9.5 8 10.6 100030 95
2004-04-29 08:04:32 51°12.3 2°48.018 9.2 5 10.6 100040 95
2004-04-29 08:04:38 51°12.291 2°47.987 9.9 2 10.6 100040 95
2004-04-29 08:04:42 51°12.285 2°47.967 9.6 5 10.6 100030 95
2004-04-29 08:04:47 51°12.279 2°47.941 9.3 3 10.6 100030 95
2004-04-29 08:04:52 51°12.271 2°47.915 10.3 2 10.6 100030 95
2004-04-29 08:04:58 51°12.263 2°47.884 8.9 2 10.6 100030 95
2004-04-29 08:05:03 51°12.255 2°47.858 9.5   10.6 100030 95
2004-04-29 08:05:08 51°12.249 2°47.832 9.5 2 10.6 100030 95
2004-04-29 08:05:12 51°12.242 2°47.811 9.9 4 10.6 100030 95
2004-04-29 08:05:18 51°12.234 2°47.78 9.2 4 10.6 100030 95
2004-04-29 08:05:22 51°12.228 2°47.759 9 4 10.6 100030 95
2004-04-29 08:05:27 51°12.221 2°47.733 8.8 4 10.6 100030 95
2004-04-29 08:05:32 51°12.214 2°47.707 9 4 10.6 100030 95
2004-04-29 08:05:37 51°12.207 2°47.681 9.4 2 10.6 100030 95
2004-04-29 08:05:42 51°12.2 2°47.655 9.3 1 10.6 100030 95
2004-04-29 08:05:48 51°12.191 2°47.623 9.8 3 10.6 100030 95
2004-04-29 08:05:52 51°12.186 2°47.603 9   10.6 100020 95
2004-04-29 08:05:58 51°12.177 2°47.571 9.6 5 10.6 100020 95
2004-04-29 08:06:02 51°12.171 2°47.55 9 1 10.7 100040 95
2004-04-29 08:06:06 51°12.166 2°47.529 9.2 3 10.7 100040 95
2004-04-29 08:06:12 51°12.157 2°47.498 9.2   10.6 100030 95
2004-04-29 08:06:18 51°12.149 2°47.467 8.5 3 10.6 100030 95
2004-04-29 08:06:23 51°12.142 2°47.441 8.6 1 10.7 100030 95
2004-04-29 08:06:27 51°12.136 2°47.42 9 2 10.7 100030 95
2004-04-29 08:06:32 51°12.129 2°47.394 9.3 3 10.6 100030 95
2004-04-29 08:06:37 51°12.122 2°47.367 9.7 1 10.6 100030 95
2004-04-29 08:06:43 51°12.114 2°47.336 9.5 3 10.6 100020 95
2004-04-29 08:06:47 51°12.108 2°47.315 8.7 359 10.6 100020 95
2004-04-29 08:06:52 51°12.101 2°47.289 9.2 360 10.6 100030 95
2004-04-29 08:06:58 51°12.093 2°47.257 9.2 3 10.6 100030 95
2004-04-29 08:07:02 51°12.087 2°47.237 9.3 5 10.6 100040 95
2004-04-29 08:07:07 51°12.079 2°47.211 9.4 5 10.6 100040 95
2004-04-29 08:07:12 51°12.072 2°47.185 9.2 4 10.6 100030 95
2004-04-29 08:07:17 51°12.065 2°47.159 9.3 3 10.6 100030 95
2004-04-29 08:07:23 51°12.057 2°47.127 9.6 5 10.7 100030 95
2004-04-29 08:07:28 51°12.05 2°47.101 9 7 10.7 100030 95
2004-04-29 08:07:32 51°12.044 2°47.08 9.5 6 10.6 100030 95
2004-04-29 08:07:38 51°12.036 2°47.049 9.9 2 10.6 100030 95
2004-04-29 08:07:42 51°12.03 2°47.028 9.7 4 10.6 100030 95
2004-04-29 08:07:48 51°12.022 2°46.997 9.5 4 10.6 100030 95
2004-04-29 08:07:52 51°12.016 2°46.976 9.2 1 10.6 100040 95
2004-04-29 08:07:57 51°12.009 2°46.95 9.2 2 10.6 100040 95
2004-04-29 08:08:03 51°12 2°46.919 8.9 360 10.6 100030 95
2004-04-29 08:08:08 51°11.993 2°46.893 9.4 4 10.6 100030 95
2004-04-29 08:08:12 51°11.988 2°46.872 9.3 4 10.6 100040 95
2004-04-29 08:08:16 51°11.982 2°46.851 10 3 10.6 100040 95
2004-04-29 08:08:22 51°11.973 2°46.82 9.4 5 10.6 100040 95
2004-04-29 08:08:27 51°11.966 2°46.794 9.1 3 10.6 100040 95
2004-04-29 08:08:32 51°11.959 2°46.768 9 3 10.6 100040 95
2004-04-29 08:08:38 51°11.95 2°46.736 9.7 5 10.6 100040 95
2004-04-29 08:08:42 51°11.945 2°46.715 9.1 3 10.6 100040 95
2004-04-29 08:08:47 51°11.938 2°46.689 9.3 3 10.6 100040 95
2004-04-29 08:08:52 51°11.931 2°46.663 9.8 4 10.6 100030 95
2004-04-29 08:08:58 51°11.922 2°46.632 9.6 2 10.6 100030 95
2004-04-29 08:09:02 51°11.917 2°46.611 9.3 3 10.6 100040 95
2004-04-29 08:09:07 51°11.91 2°46.584 9.6 2 10.6 100040 95
2004-04-29 08:09:12 51°11.902 2°46.558 9.8 1 10.6 100040 95
2004-04-29 08:09:18 51°11.894 2°46.527 9.8 360 10.6 100040 95
2004-04-29 08:09:22 51°11.888 2°46.506 9.7 1 10.6 100030 95
2004-04-29 08:09:27 51°11.881 2°46.48 9.5   10.6 100030 95
2004-04-29 08:09:32 51°11.874 2°46.454 9.8 2 10.6 100030 95
2004-04-29 08:09:38 51°11.866 2°46.422 10 3 10.6 100030 95
2004-04-29 08:09:42 51°11.86 2°46.402 9.7 3 10.6 100030 95
2004-04-29 08:09:48 51°11.851 2°46.37 9.5 4 10.6 100030 95
2004-04-29 08:09:51 51°11.847 2°46.355 9.3 1 10.6 100030 95
2004-04-29 08:09:57 51°11.838 2°46.323 9.6   10.6 100030 95
2004-04-29 08:10:02 51°11.831 2°46.297 9.8 3 10.6 100030 95
2004-04-29 08:10:08 51°11.823 2°46.265 10.1 3 10.6 100030 95
2004-04-29 08:10:12 51°11.817 2°46.245 9.6   10.6 100030 95
2004-04-29 08:10:18 51°11.809 2°46.213 9.9   10.6 100030 95
2004-04-29 08:10:23 51°11.802 2°46.186 9.4 1 10.6 100030 95
2004-04-29 08:10:28 51°11.795 2°46.16 9.9 2 10.6 100030 95
2004-04-29 08:10:32 51°11.79 2°46.139 9.5 359 10.6 100030 95
2004-04-29 08:10:36 51°11.784 2°46.118 9.5 3 10.6 100030 95
2004-04-29 08:10:42 51°11.776 2°46.086 9.5 1 10.6 100030 95
2004-04-29 08:10:48 51°11.768 2°46.054 9.6 3 10.6 100030 95
2004-04-29 08:10:52 51°11.763 2°46.032 9.5 3 10.6 100030 95
2004-04-29 08:10:58 51°11.754 2°46.001 9.6 5 10.6 100030 95
2004-04-29 08:11:02 51°11.749 2°45.979 9.5 4 10.6 100040 95
2004-04-29 08:11:07 51°11.742 2°45.953 10 4 10.6 100040 95
2004-04-29 08:11:12 51°11.735 2°45.927 9.1 4 10.6 100030 95
2004-04-29 08:11:18 51°11.727 2°45.895 9.5 360 10.6 100030 95
2004-04-29 08:11:22 51°11.721 2°45.874 9.4   10.6 100030 95
2004-04-29 08:11:27 51°11.715 2°45.847 9.7 4 10.6 100030 95
2004-04-29 08:11:32 51°11.708 2°45.821 9.1 5 10.6 100030 95
2004-04-29 08:11:37 51°11.701 2°45.795 9.2 5 10.6 100030 95
2004-04-29 08:11:43 51°11.693 2°45.763 9.1 7 10.6 100030 95
2004-04-29 08:11:48 51°11.686 2°45.736 9.3 5 10.6 100030 95
2004-04-29 08:11:52 51°11.681 2°45.715 10 3 10.6 100030 95
2004-04-29 08:11:58 51°11.673 2°45.683 9.1 3 10.6 100030 95
2004-04-29 08:12:01 51°11.669 2°45.667 9.3 2 10.6 100040 95
2004-04-29 08:12:08 51°11.66 2°45.63 9.3 2 10.6 100040 95
2004-04-29 08:12:12 51°11.654 2°45.609 9.5 360 10.6 100030 95
2004-04-29 08:12:18 51°11.646 2°45.577 9 359 10.6 100030 95
2004-04-29 08:12:21 51°11.642 2°45.562 8.7   10.6 100030 95
2004-04-29 08:12:28 51°11.633 2°45.525 9.5 359 10.6 100030 95
2004-04-29 08:12:32 51°11.627 2°45.504 9 360 10.6 100040 95
2004-04-29 08:12:38 51°11.619 2°45.472 9.3 2 10.6 100040 95
2004-04-29 08:12:42 51°11.613 2°45.451 9.3 1 10.6 100030 95
2004-04-29 08:12:48 51°11.605 2°45.419 9.1 360 10.6 100030 95
2004-04-29 08:12:52 51°11.6 2°45.398 9.6 1 10.6 100030 95
2004-04-29 08:12:58 51°11.592 2°45.366 9 3 10.6 100030 95
2004-04-29 08:13:02 51°11.587 2°45.345 9 1 10.6 100030 95
2004-04-29 08:13:07 51°11.58 2°45.318 8.9 1 10.6 100030 95
2004-04-29 08:13:12 51°11.573 2°45.292 9.3 1 10.6 100030 95
2004-04-29 08:13:18 51°11.565 2°45.261 9.5 1 10.6 100030 95
2004-04-29 08:13:22 51°11.56 2°45.239 9 1 10.6 100030 95
2004-04-29 08:13:28 51°11.551 2°45.208 9.2 2 10.6 100030 95
2004-04-29 08:13:32 51°11.546 2°45.187 9.2 2 10.6 100030 95
2004-04-29 08:13:38 51°11.538 2°45.155 8.8 3 10.6 100030 95
2004-04-29 08:13:42 51°11.533 2°45.134 9.1 2 10.6 100030 95
2004-04-29 08:13:47 51°11.526 2°45.108 8.8 3 10.6 100030 95
2004-04-29 08:13:52 51°11.519 2°45.081 8.8 5 10.6 100030 95
2004-04-29 08:13:58 51°11.511 2°45.049 8.5 3 10.6 100030 95
2004-04-29 08:14:02 51°11.506 2°45.028 9.6 4 10.6 100030 95
2004-04-29 08:14:07 51°11.499 2°45.001 8.8 5 10.6 100030 95
2004-04-29 08:14:12 51°11.493 2°44.975 9.1 3 10.6 100030 95
2004-04-29 08:14:18 51°11.484 2°44.943 9 8 10.6 100030 95
2004-04-29 08:14:22 51°11.479 2°44.922 9.1 2 10.6 100030 95
2004-04-29 08:14:27 51°11.472 2°44.896 9.9 5 10.6 100030 95
2004-04-29 08:14:32 51°11.466 2°44.87 9.2 4 10.6 100030 95
2004-04-29 08:14:38 51°11.457 2°44.838 9.2 5 10.6 100030 95
2004-04-29 08:14:42 51°11.452 2°44.817 9.5 7 10.6 100040 95
2004-04-29 08:14:47 51°11.445 2°44.791 9.4 2 10.6 100040 95
2004-04-29 08:14:52 51°11.439 2°44.764 9.5 4 10.6 100030 95
2004-04-29 08:14:58 51°11.43 2°44.733 9.2 3 10.6 100030 95
2004-04-29 08:15:03 51°11.424 2°44.706 9.6 3 10.6 100030 95
2004-04-29 08:15:07 51°11.418 2°44.685 9.7 2 10.6 100030 95
2004-04-29 08:15:12 51°11.412 2°44.659 9.4 2 10.6 100040 95
2004-04-29 08:15:17 51°11.405 2°44.632 9.5 360 10.6 100040 95
2004-04-29 08:15:23 51°11.397 2°44.601 9.4 3 10.6 100030 95
2004-04-29 08:15:27 51°11.392 2°44.58 9.6 4 10.6 100030 95
2004-04-29 08:15:32 51°11.385 2°44.553 9.1 5 10.6 100030 95
2004-04-29 08:15:38 51°11.377 2°44.522 9.3 3 10.6 100030 95
2004-04-29 08:15:43 51°11.37 2°44.495 9.4 5 10.6 100030 95
2004-04-29 08:15:48 51°11.364 2°44.469 9 4 10.6 100030 95
2004-04-29 08:15:52 51°11.358 2°44.448 9.3 3 10.6 100030 95
2004-04-29 08:15:58 51°11.35 2°44.416 9.9 5 10.6 100030 95
2004-04-29 08:16:02 51°11.345 2°44.395 9.2 3 10.6 100030 95
2004-04-29 08:16:07 51°11.338 2°44.368 9.4 6 10.6 100030 95
2004-04-29 08:16:12 51°11.331 2°44.342 9.1 4 10.6 100030 95
2004-04-29 08:16:18 51°11.323 2°44.311 8.9 5 10.6 100030 95
2004-04-29 08:16:22 51°11.318 2°44.29 9.2 5 10.6 100030 95
2004-04-29 08:16:27 51°11.311 2°44.264 9.8 6 10.6 100030 95
2004-04-29 08:16:32 51°11.304 2°44.237 9.8 3 10.6 100040 95
2004-04-29 08:16:38 51°11.297 2°44.206 9.2 1 10.6 100040 95
2004-04-29 08:16:40 51°11.294 2°44.196 9.9 3 10.6 100030 95
2004-04-29 08:16:48 51°11.283 2°44.154 9.3 2 10.6 100030 95
2004-04-29 08:16:52 51°11.277 2°44.133 9.9 1 10.6 100030 95
2004-04-29 08:16:57 51°11.271 2°44.107 9.5 3 10.6 100030 95
2004-04-29 08:17:03 51°11.262 2°44.076 8.8 3 10.6 100030 95
2004-04-29 08:17:07 51°11.257 2°44.055 9.3 6 10.6 100030 95
2004-04-29 08:17:12 51°11.25 2°44.029 9.4 6 10.6 100030 95
2004-04-29 08:17:18 51°11.242 2°43.997 9.1 3 10.6 100030 95
2004-04-29 08:17:23 51°11.235 2°43.971 9.5 4 10.6 100030 95
2004-04-29 08:17:27 51°11.23 2°43.95 8.8 1 10.6 100030 95
2004-04-29 08:17:32 51°11.223 2°43.924 8.9 3 10.6 100030 95
2004-04-29 08:17:38 51°11.216 2°43.892 9.5 4 10.6 100030 95
2004-04-29 08:17:42 51°11.211 2°43.871 9.2 5 10.6 100030 95
2004-04-29 08:17:47 51°11.205 2°43.845 9.1 3 10.6 100030 95
2004-04-29 08:17:52 51°11.198 2°43.818 9.4 4 10.6 100030 95
2004-04-29 08:17:58 51°11.19 2°43.787 9 3 10.6 100030 95
2004-04-29 08:18:02 51°11.185 2°43.765 9.3 4 10.6 100030 95
2004-04-29 08:18:07 51°11.179 2°43.739 9.5 1 10.6 100030 95
2004-04-29 08:18:12 51°11.172 2°43.712 9.4 3 10.6 100030 95
2004-04-29 08:18:18 51°11.165 2°43.68 8.8 3 10.6 100030 95
2004-04-29 08:18:22 51°11.16 2°43.659 9.5 5 10.6 100030 95
2004-04-29 08:18:28 51°11.152 2°43.627 9.6 3 10.6 100030 95
2004-04-29 08:18:32 51°11.146 2°43.606 9.1 360 10.6 100020 95
2004-04-29 08:18:38 51°11.139 2°43.574 9.3 8 10.6 100020 95
2004-04-29 08:18:42 51°11.134 2°43.552 9.6 7 10.6 100030 95
2004-04-29 08:18:47 51°11.127 2°43.526 9.6 6 10.6 100030 95
2004-04-29 08:18:52 51°11.121 2°43.499 9.5 6 10.6 100030 95
2004-04-29 08:18:58 51°11.113 2°43.467 9.4 7 10.6 100030 95
2004-04-29 08:19:03 51°11.107 2°43.441 9 7 10.6 100030 95
2004-04-29 08:19:08 51°11.1 2°43.415 9.4 4 10.6 100030 95
2004-04-29 08:19:12 51°11.095 2°43.393 9.3 4 10.6 100030 95
2004-04-29 08:19:18 51°11.087 2°43.361 9 3 10.6 100030 95
2004-04-29 08:19:22 51°11.082 2°43.34 9.3 4 10.6 100030 95
2004-04-29 08:19:27 51°11.075 2°43.314 9.5 1 10.6 100030 95
2004-04-29 08:19:32 51°11.069 2°43.287 9.3 4 10.6 100030 95
2004-04-29 08:19:37 51°11.063 2°43.26 9.2 4 10.6 100030 95
2004-04-29 08:19:42 51°11.057 2°43.234 9.7 4 10.6 100030 95
2004-04-29 08:19:48 51°11.049 2°43.202 9.6 4 10.6 100030 95
2004-04-29 08:19:52 51°11.044 2°43.181 9.8 5 10.6 100020 95
2004-04-29 08:19:58 51°11.036 2°43.149 9.8 4 10.6 100020 95
2004-04-29 08:20:02 51°11.031 2°43.128 9.7 5 10.6 100020 95
2004-04-29 08:20:08 51°11.023 2°43.096 9.7 10 10.6 100020 95
2004-04-29 08:20:12 51°11.018 2°43.075 9.1 7 10.6 100030 95
2004-04-29 08:20:18 51°11.01 2°43.043 9.4 7 10.6 100030 95
2004-04-29 08:20:23 51°11.004 2°43.016 10.1 1 10.6 100030 95
2004-04-29 08:20:27 51°10.998 2°42.995 9.8 4 10.6 100030 95
2004-04-29 08:20:32 51°10.992 2°42.968 9 5 10.6 100030 95
2004-04-29 08:20:37 51°10.986 2°42.941 9.1 8 10.6 100030 95
2004-04-29 08:20:43 51°10.978 2°42.909 9.2 6 10.6 100030 95
2004-04-29 08:20:47 51°10.973 2°42.888 9.6 7 10.6 100030 95
2004-04-29 08:20:52 51°10.967 2°42.861 9.7 9 10.6 100020 95
2004-04-29 08:20:58 51°10.959 2°42.829 9.1 8 10.6 100020 95
2004-04-29 08:21:02 51°10.954 2°42.808 9.3 5 10.6 100030 95
2004-04-29 08:21:07 51°10.947 2°42.782 9.5 3 10.6 100030 95
2004-04-29 08:21:12 51°10.941 2°42.755 9.4 5 10.6 100030 95
2004-04-29 08:21:18 51°10.932 2°42.723 9.4 7 10.6 100030 95
2004-04-29 08:21:22 51°10.928 2°42.701 9.3 7 10.6 100030 95
2004-04-29 08:21:28 51°10.92 2°42.669 9.1 8 10.6 100030 95
2004-04-29 08:21:32 51°10.915 2°42.648 9.8 4 10.6 100030 95
2004-04-29 08:21:38 51°10.907 2°42.616 9.4 1 10.6 100030 95
2004-04-29 08:21:42 51°10.902 2°42.595 10 2 10.6 100030 95
2004-04-29 08:21:47 51°10.896 2°42.569 9.5 2 10.6 100030 95
2004-04-29 08:21:52 51°10.889 2°42.542 9.2 3 10.6 100030 95
2004-04-29 08:21:58 51°10.882 2°42.51 9.7 2 10.6 100030 95
2004-04-29 08:22:03 51°10.875 2°42.483 9.1 2 10.6 100030 95
2004-04-29 08:22:08 51°10.869 2°42.457 9.6 4 10.6 100030 95
2004-04-29 08:22:12 51°10.863 2°42.436 9.5 5 10.6 100030 95
2004-04-29 08:22:18 51°10.855 2°42.404 9.6 5 10.6 100030 95
2004-04-29 08:22:22 51°10.85 2°42.383 9.2 7 10.6 100040 95
2004-04-29 08:22:27 51°10.843 2°42.357 9 8 10.6 100040 95
2004-04-29 08:22:32 51°10.836 2°42.33 9 9 10.6 100030 95
2004-04-29 08:22:37 51°10.83 2°42.304 9.4 7 10.6 100030 95
2004-04-29 08:22:42 51°10.823 2°42.277 9.5 9 10.6 100020 95
2004-04-29 08:22:48 51°10.815 2°42.246 9.6 9 10.6 100020 95
2004-04-29 08:22:52 51°10.81 2°42.225 8.8 7 10.6 100030 95
2004-04-29 08:22:58 51°10.802 2°42.193 9.4 4 10.6 100030 95
2004-04-29 08:23:02 51°10.796 2°42.173 9 5 10.6 100030 95
2004-04-29 08:23:08 51°10.788 2°42.141 8.5 5 10.6 100030 95
2004-04-29 08:23:12 51°10.783 2°42.12 8.5 7 10.6 100030 95
2004-04-29 08:23:18 51°10.775 2°42.089 10 5 10.6 100030 95
2004-04-29 08:23:22 51°10.77 2°42.068 9.5 9 10.6 100030 95
2004-04-29 08:23:27 51°10.763 2°42.042 9.4 6 10.6 100030 95
2004-04-29 08:23:32 51°10.756 2°42.016 9.5 9 10.6 100030 95
2004-04-29 08:23:37 51°10.75 2°41.989 9.9 9 10.6 100030 95
2004-04-29 08:23:43 51°10.742 2°41.958 9.2 8 10.6 100030 95
2004-04-29 08:23:47 51°10.737 2°41.937 9.4 5 10.6 100030 95
2004-04-29 08:23:52 51°10.73 2°41.911 9.3 6 10.6 100030 95
2004-04-29 08:23:58 51°10.722 2°41.88 9.8 2 10.6 100030 95
2004-04-29 08:24:02 51°10.716 2°41.86 9.5 4 10.6 100030 95
2004-04-29 08:24:07 51°10.71 2°41.833 9.1 6 10.6 100030 95
2004-04-29 08:24:12 51°10.702 2°41.808 9.1 6 10.6 100030 95
2004-04-29 08:24:18 51°10.695 2°41.777 9.3 4 10.6 100030 95
2004-04-29 08:24:22 51°10.689 2°41.756 9.5 7 10.6 100040 95
2004-04-29 08:24:28 51°10.681 2°41.725 10 7 10.6 100040 95
2004-04-29 08:24:32 51°10.676 2°41.704 9.5 8 10.5 100030 95
2004-04-29 08:24:38 51°10.668 2°41.673 9.7 6 10.5 100030 95
2004-04-29 08:24:42 51°10.663 2°41.652 9.5 10 10.5 100030 95
2004-04-29 08:24:48 51°10.655 2°41.621 9.7 5 10.5 100030 95
2004-04-29 08:24:52 51°10.65 2°41.6 9.9 4 10.6 100030 95
2004-04-29 08:24:58 51°10.642 2°41.569 10.2 3 10.6 100030 95
2004-04-29 08:25:03 51°10.636 2°41.543 9.8 6 10.5 100040 95
2004-04-29 08:25:08 51°10.629 2°41.517 9.8 5 10.5 100040 95
2004-04-29 08:25:12 51°10.624 2°41.496 9.3 4 10.5 100030 95
2004-04-29 08:25:18 51°10.616 2°41.465 9.8 7 10.5 100030 95
2004-04-29 08:25:22 51°10.611 2°41.444 9.6 7 10.6 100030 95
2004-04-29 08:25:27 51°10.604 2°41.418 9.7 7 10.6 100030 95
2004-04-29 08:25:32 51°10.598 2°41.392 10.2 7 10.5 100040 95
2004-04-29 08:25:37 51°10.591 2°41.366 9.4 8 10.5 100040 95
2004-04-29 08:25:42 51°10.584 2°41.339 9.6 6 10.5 100040 95
2004-04-29 08:25:48 51°10.577 2°41.308 10.2 7 10.5 100040 95
2004-04-29 08:25:52 51°10.571 2°41.287 9.8 5 10.5 100030 95
2004-04-29 08:25:58 51°10.564 2°41.255 9.9 3 10.5 100030 95
2004-04-29 08:26:02 51°10.559 2°41.234 10.4 3 10.5 100040 95
2004-04-29 08:26:08 51°10.551 2°41.202 10 7 10.5 100040 95
2004-04-29 08:26:12 51°10.546 2°41.181 10.2 2 10.5 100030 95
2004-04-29 08:26:18 51°10.539 2°41.149 9.7 8 10.5 100030 95
2004-04-29 08:26:23 51°10.532 2°41.123 10.3 8 10.5 100030 95
2004-04-29 08:26:27 51°10.527 2°41.102 10.3 7 10.5 100030 95
2004-04-29 08:26:32 51°10.521 2°41.076 10 10 10.5 100030 95
2004-04-29 08:26:37 51°10.514 2°41.049 9.3 4 10.5 100030 95
2004-04-29 08:26:43 51°10.507 2°41.018 9.6 4 10.5 100030 95
2004-04-29 08:26:47 51°10.502 2°40.997 10 6 10.5 100030 95
2004-04-29 08:26:52 51°10.495 2°40.971 9.4 5 10.5 100030 95
2004-04-29 08:26:58 51°10.488 2°40.939 9.7 8 10.5 100030 95
2004-04-29 08:27:02 51°10.483 2°40.918 9.8 4 10.5 100040 95
2004-04-29 08:27:08 51°10.476 2°40.887 9.4 5 10.5 100040 95
2004-04-29 08:27:12 51°10.47 2°40.866 9.8 5 10.5 100030 95
2004-04-29 08:27:18 51°10.463 2°40.834 9.8 5 10.5 100030 95
2004-04-29 08:27:22 51°10.458 2°40.813 9.3 4 10.5 100040 95
2004-04-29 08:27:28 51°10.45 2°40.782 9.6 7 10.5 100040 95
2004-04-29 08:27:32 51°10.445 2°40.761 9.6 6 10.5 100030 95
2004-04-29 08:27:38 51°10.438 2°40.729 9.7 7 10.5 100030 95
2004-04-29 08:27:42 51°10.433 2°40.708 9.7 6 10.5 100040 95
2004-04-29 08:27:47 51°10.427 2°40.681 9.7 6 10.5 100040 95
2004-04-29 08:27:52 51°10.421 2°40.655 9.5 8 10.5 100040 95
2004-04-29 08:27:57 51°10.415 2°40.629 9.9 8 10.5 100040 95
2004-04-29 08:28:00 51°10.412 2°40.613 9.9 9 10.5 100040 95
2004-04-29 08:28:08 51°10.402 2°40.57 9.8 7 10.5 100040 95
2004-04-29 08:28:12 51°10.397 2°40.549 9.3 4 10.5 100050 95
2004-04-29 08:28:18 51°10.39 2°40.518 9.6 5 10.5 100050 95
2004-04-29 08:28:23 51°10.383 2°40.491 10.2 9 10.5 100040 95
2004-04-29 08:28:27 51°10.378 2°40.47 9.5 3 10.5 100040 95
2004-04-29 08:28:32 51°10.372 2°40.444 10.2 6 10.5 100040 95
2004-04-29 08:28:37 51°10.366 2°40.417 9.7 8 10.5 100040 95
2004-04-29 08:28:43 51°10.359 2°40.385 9.9 6 10.5 100040 95
2004-04-29 08:28:48 51°10.353 2°40.359 9.9 4 10.5 100040 95
2004-04-29 08:28:52 51°10.347 2°40.338 10.1 4 10.5 100040 95
2004-04-29 08:28:58 51°10.34 2°40.306 9.9 6 10.5 100040 95
2004-04-29 08:29:02 51°10.335 2°40.285 9.5 7 10.5 100040 95
2004-04-29 08:29:08 51°10.327 2°40.254 9.6 6 10.5 100040 95
2004-04-29 08:29:12 51°10.322 2°40.233 9.3 8 10.5 100040 95
2004-04-29 08:29:18 51°10.314 2°40.201 10.2 7 10.5 100040 95
2004-04-29 08:29:22 51°10.309 2°40.18 9.8 8 10.5 100040 95
2004-04-29 08:29:28 51°10.301 2°40.148 9.9 7 10.5 100040 95
2004-04-29 08:29:32 51°10.296 2°40.127 10.6 5 10.5 100040 95
2004-04-29 08:29:38 51°10.288 2°40.096 9.6 5 10.5 100040 95
2004-04-29 08:29:42 51°10.283 2°40.074 10.6 8 10.5 100040 95
2004-04-29 08:29:47 51°10.277 2°40.048 10.1 5 10.5 100040 95
2004-04-29 08:29:52 51°10.27 2°40.022 9.6 6 10.5 100040 95
2004-04-29 08:29:57 51°10.263 2°39.996 10 6 10.5 100040 95
2004-04-29 08:30:03 51°10.255 2°39.965 9.9 6 10.5 100040 95
2004-04-29 08:30:07 51°10.25 2°39.944 9.7 5 10.5 100040 95
2004-04-29 08:30:12 51°10.244 2°39.917 10.2 5 10.5 100040 95
2004-04-29 08:30:18 51°10.236 2°39.886 9.8 6 10.5 100040 95
2004-04-29 08:30:22 51°10.231 2°39.865 9.9 3 10.5 100040 95
2004-04-29 08:30:27 51°10.224 2°39.839 9.8 5 10.5 100040 95
2004-04-29 08:30:32 51°10.217 2°39.813 10.7 5 10.5 100040 95
2004-04-29 08:30:38 51°10.21 2°39.781 10.3 4 10.5 100040 95
2004-04-29 08:30:42 51°10.204 2°39.76 10 6 10.5 100040 95
2004-04-29 08:30:47 51°10.198 2°39.734 10.7 7 10.5 100040 95
2004-04-29 08:30:52 51°10.191 2°39.708 10 7 10.5 100050 95
2004-04-29 08:30:58 51°10.184 2°39.676 10.2 6 10.5 100050 95
2004-04-29 08:31:02 51°10.179 2°39.655 10.1 7 10.5 100040 95
2004-04-29 08:31:08 51°10.171 2°39.624 10.1 4 10.5 100040 95
2004-04-29 08:31:12 51°10.166 2°39.603 10.2 8 10.5 100040 95
2004-04-29 08:31:18 51°10.158 2°39.571 10.1 7 10.5 100040 95
2004-04-29 08:31:23 51°10.151 2°39.546 10 5 10.5 100050 95
2004-04-29 08:31:28 51°10.145 2°39.52 10.5 9 10.5 100050 95
2004-04-29 08:31:32 51°10.139 2°39.499 10.3 3 10.5 100040 95
2004-04-29 08:31:38 51°10.131 2°39.468 10.2 6 10.5 100040 95
2004-04-29 08:31:42 51°10.126 2°39.447 10 6 10.5 100050 95
2004-04-29 08:31:48 51°10.118 2°39.417 10 6 10.5 100050 95
2004-04-29 08:31:52 51°10.112 2°39.396 10.3 8 10.5 100050 95
2004-04-29 08:31:57 51°10.106 2°39.371 9.9 5 10.5 100050 95
2004-04-29 08:32:03 51°10.097 2°39.34 10.4 8 10.5 100050 95
2004-04-29 08:32:06 51°10.093 2°39.324 10.3 7 10.5 100050 95
2004-04-29 08:32:12 51°10.085 2°39.294 10 6 10.4 100050 95
2004-04-29 08:32:18 51°10.077 2°39.263 9.5 4 10.4 100050 95
2004-04-29 08:32:21 51°10.073 2°39.247 9.8 6 10.4 100050 95
2004-04-29 08:32:27 51°10.066 2°39.216 11 5 10.4 100050 95
2004-04-29 08:32:32 51°10.059 2°39.19 10.1 6 10.4 100050 95
2004-04-29 08:32:38 51°10.052 2°39.159 10.1 5 10.4 100050 95
2004-04-29 08:32:42 51°10.047 2°39.138 10.1 6 10.4 100050 95
2004-04-29 08:32:48 51°10.04 2°39.106 10.4 8 10.4 100050 95
2004-04-29 08:32:52 51°10.035 2°39.085 10.2 5 10.4 100040 95
2004-04-29 08:32:58 51°10.027 2°39.054 9.9 7 10.4 100040 95
2004-04-29 08:33:03 51°10.021 2°39.027 10.6 8 10.4 100050 95
2004-04-29 08:33:07 51°10.016 2°39.006 10.5 7 10.4 100050 95
2004-04-29 08:33:12 51°10.01 2°38.981 9.6 3 10.4 100040 95
2004-04-29 08:33:17 51°10.004 2°38.954 10.7 6 10.4 100040 95
2004-04-29 08:33:23 51°9.996 2°38.923 9.9 8 10.4 100040 95
2004-04-29 08:33:28 51°9.99 2°38.897 10.3 7 10.4 100040 95
2004-04-29 08:33:30 51°9.988 2°38.887 10 8 10.4 100040 95
2004-04-29 08:33:38 51°9.978 2°38.845 10.7 8 10.4 100040 95
2004-04-29 08:33:42 51°9.973 2°38.824 10.1 7 10.4 100050 95
2004-04-29 08:33:48 51°9.966 2°38.793 10 5 10.4 100050 95
2004-04-29 08:33:52 51°9.961 2°38.772 10.2 6 10.4 100050 95
2004-04-29 08:33:58 51°9.953 2°38.74 10.5 7 10.4 100050 95
2004-04-29 08:34:03 51°9.948 2°38.714 9.7 7 10.4 100040 95
2004-04-29 08:34:08 51°9.941 2°38.688 9.9 9 10.4 100040 95
2004-04-29 08:34:12 51°9.937 2°38.667 10.7 7 10.4 100040 95
2004-04-29 08:34:17 51°9.93 2°38.641 9.9 8 10.4 100040 95
2004-04-29 08:34:22 51°9.924 2°38.614 10.2 9 10.4 100050 95
2004-04-29 08:34:28 51°9.916 2°38.583 10.5 11 10.4 100050 95
2004-04-29 08:34:32 51°9.911 2°38.562 10 9 10.4 100050 95
2004-04-29 08:34:38 51°9.904 2°38.531 10.3 9 10.4 100050 95
2004-04-29 08:34:42 51°9.899 2°38.51 9.6 9 10.4 100050 95
2004-04-29 08:34:48 51°9.892 2°38.478 9.4 7 10.4 100050 95
2004-04-29 08:34:52 51°9.888 2°38.457 10.2 5 10.4 100040 95
2004-04-29 08:34:58 51°9.881 2°38.426 9.4 5 10.4 100040 95
2004-04-29 08:35:03 51°9.875 2°38.399 10 6 10.4 100040 95
2004-04-29 08:35:07 51°9.87 2°38.378 9.4 6 10.4 100040 95
2004-04-29 08:35:12 51°9.864 2°38.352 10.4 6 10.4 100040 95
2004-04-29 08:35:17 51°9.857 2°38.325 9.7 11 10.4 100040 95
2004-04-29 08:35:23 51°9.85 2°38.294 9.7 7 10.4 100040 95
2004-04-29 08:35:27 51°9.845 2°38.273 9.6 8 10.4 100040 95
2004-04-29 08:35:32 51°9.838 2°38.247 9.6 7 10.4 100040 95
2004-04-29 08:35:37 51°9.832 2°38.221 9.9 8 10.4 100040 95
2004-04-29 08:35:43 51°9.824 2°38.19 10 9 10.4 100040 95
2004-04-29 08:35:48 51°9.817 2°38.164 9.6 10 10.4 100040 95
2004-04-29 08:35:52 51°9.811 2°38.143 9.6 6 10.4 100040 95
2004-04-29 08:35:58 51°9.803 2°38.112 9.8 9 10.4 100040 95
2004-04-29 08:36:03 51°9.797 2°38.086 10 11 10.4 100040 95
2004-04-29 08:36:07 51°9.791 2°38.065 9.9 7 10.4 100040 95
2004-04-29 08:36:12 51°9.785 2°38.039 9.8 8 10.4 100040 95
2004-04-29 08:36:18 51°9.777 2°38.007 10.1 9 10.4 100040 95
2004-04-29 08:36:22 51°9.772 2°37.987 10.4 9 10.4 100040 95
2004-04-29 08:36:27 51°9.766 2°37.961 10.2 10 10.4 100040 95
2004-04-29 08:36:32 51°9.759 2°37.935 10.1 9 10.4 100040 95
2004-04-29 08:36:37 51°9.753 2°37.909 10 7 10.4 100040 95
2004-04-29 08:36:43 51°9.745 2°37.878 9.9 10 10.3 100040 95
2004-04-29 08:36:48 51°9.739 2°37.852 10 10 10.3 100040 95
2004-04-29 08:36:52 51°9.733 2°37.831 10.1 8 10.4 100040 95
2004-04-29 08:36:58 51°9.726 2°37.8 9.8 7 10.4 100040 95
2004-04-29 08:37:03 51°9.719 2°37.774 10 7 10.4 100040 95
2004-04-29 08:37:08 51°9.714 2°37.748 9.4 10 10.4 100040 95
2004-04-29 08:37:12 51°9.708 2°37.727 9.7 8 10.4 100040 95
2004-04-29 08:37:18 51°9.701 2°37.696 9.8 5 10.4 100040 95
2004-04-29 08:37:22 51°9.695 2°37.675 10.3 8 10.4 100040 95
2004-04-29 08:37:27 51°9.69 2°37.649 10.4 7 10.4 100040 95
2004-04-29 08:37:32 51°9.683 2°37.623 10.4 8 10.4 100040 95
2004-04-29 08:37:36 51°9.678 2°37.602 9.9 10 10.4 100040 95
2004-04-29 08:37:43 51°9.67 2°37.566 10.2 11 10.4 100040 95
2004-04-29 08:37:47 51°9.664 2°37.545 10.7 8 10.4 100040 95
2004-04-29 08:37:49 51°9.662 2°37.535 10.1 9 10.4 100050 95
2004-04-29 08:37:57 51°9.651 2°37.493 9.7 10 10.4 100050 95
2004-04-29 08:38:03 51°9.643 2°37.461 9.6 9 10.4 100050 95
2004-04-29 08:38:08 51°9.636 2°37.436 9.8 10 10.4 100050 95
2004-04-29 08:38:12 51°9.631 2°37.415 10.4 7 10.4 100040 95
2004-04-29 08:38:18 51°9.622 2°37.384 9.7 7 10.4 100040 95
2004-04-29 08:38:23 51°9.615 2°37.358 10.5 5 10.4 100040 95
2004-04-29 08:38:26 51°9.611 2°37.342 9.8 9 10.4 100040 95
2004-04-29 08:38:32 51°9.602 2°37.311 9.7 10 10.3 100050 95
2004-04-29 08:38:38 51°9.594 2°37.28 9.8 7 10.3 100050 95
2004-04-29 08:38:42 51°9.588 2°37.26 10.1 8 10.4 100050 95
2004-04-29 08:38:48 51°9.58 2°37.229 9.8 10 10.4 100050 95
2004-04-29 08:38:52 51°9.575 2°37.208 9.4 6 10.3 100040 95
2004-04-29 08:38:58 51°9.567 2°37.177 9.7 7 10.3 100040 95
2004-04-29 08:39:02 51°9.561 2°37.156 9.1 9 10.3 100040 95
2004-04-29 08:39:08 51°9.553 2°37.125 9.9 5 10.3 100040 95
2004-04-29 08:39:12 51°9.548 2°37.104 9.8 9 10.3 100040 95
2004-04-29 08:39:18 51°9.54 2°37.073 9.4 9 10.3 100040 95
2004-04-29 08:39:22 51°9.534 2°37.052 9.8 6 10.3 100040 95
2004-04-29 08:39:28 51°9.527 2°37.02 9.8 6 10.3 100040 95
2004-04-29 08:39:32 51°9.521 2°37 9.9 7 10.3 100050 95
2004-04-29 08:39:38 51°9.513 2°36.968 9.9 5 10.3 100050 95
2004-04-29 08:39:42 51°9.508 2°36.948 9.4 6 10.3 100040 95
2004-04-29 08:39:47 51°9.501 2°36.921 9.6 4 10.3 100040 95
2004-04-29 08:39:52 51°9.494 2°36.896 9.3 7 10.3 100050 95
2004-04-29 08:39:58 51°9.486 2°36.864 9.1 9 10.3 100050 95
2004-04-29 08:40:02 51°9.481 2°36.843 9 10 10.3 100040 95
2004-04-29 08:40:08 51°9.472 2°36.813 9.7 8 10.3 100040 95
2004-04-29 08:40:12 51°9.467 2°36.791 9.5 9 10.3 100040 95
2004-04-29 08:40:18 51°9.459 2°36.76 10.2 9 10.3 100040 95
2004-04-29 08:40:23 51°9.452 2°36.734 9.2 6 10.3 100050 95
2004-04-29 08:40:28 51°9.445 2°36.708 10.2 9 10.3 100050 95
2004-04-29 08:40:31 51°9.441 2°36.693 10.5 9 10.3 100050 95
2004-04-29 08:40:38 51°9.431 2°36.657 9.7 8 10.3 100050 95
2004-04-29 08:40:43 51°9.424 2°36.63 9.7 7 10.3 100040 95
2004-04-29 08:40:48 51°9.417 2°36.605 9 7 10.3 100040 95
2004-04-29 08:40:52 51°9.412 2°36.584 10 4 10.3 100040 95
2004-04-29 08:40:58 51°9.404 2°36.552 9.3 4 10.3 100040 95
2004-04-29 08:41:02 51°9.398 2°36.531 10.1 6 10.3 100040 95
2004-04-29 08:41:08 51°9.39 2°36.5 9.8 6 10.3 100040 95
2004-04-29 08:41:12 51°9.385 2°36.479 9.5 6 10.3 100040 95
2004-04-29 08:41:16 51°9.379 2°36.458 9.2 5 10.3 100040 95
2004-04-29 08:41:22 51°9.372 2°36.426 9.8 6 10.3 100050 95
2004-04-29 08:41:28 51°9.363 2°36.395 9.1 7 10.3 100050 95
2004-04-29 08:41:32 51°9.358 2°36.374 9.9 7 10.3 100040 95
2004-04-29 08:41:37 51°9.351 2°36.347 10.5 7 10.3 100040 95
2004-04-29 08:41:42 51°9.345 2°36.321 10 7 10.3 100040 95
2004-04-29 08:41:48 51°9.336 2°36.29 9.8 6 10.3 100040 95
2004-04-29 08:41:52 51°9.331 2°36.269 9.6 4 10.3 100040 95
2004-04-29 08:41:58 51°9.323 2°36.237 9.2 7 10.3 100040 95
2004-04-29 08:42:00 51°9.32 2°36.227 9.8 6 10.3 100050 95
2004-04-29 08:42:08 51°9.309 2°36.185 9.7 6 10.3 100050 95
2004-04-29 08:42:12 51°9.304 2°36.164 9.7 5 10.3 100040 95
2004-04-29 08:42:18 51°9.296 2°36.132 10.1 4 10.3 100040 95
2004-04-29 08:42:22 51°9.29 2°36.111 9.9 5 10.3 100050 95
2004-04-29 08:42:28 51°9.282 2°36.08 10.3 3 10.3 100050 95
2004-04-29 08:42:32 51°9.276 2°36.059 9.9 5 10.3 100050 95
2004-04-29 08:42:38 51°9.268 2°36.028 10.1 3 10.3 100050 95
2004-04-29 08:42:42 51°9.263 2°36.007 9.6 6 10.3 100040 95
2004-04-29 08:42:48 51°9.255 2°35.975 9.6 5 10.3 100040 95
2004-04-29 08:42:52 51°9.25 2°35.954 9.9 8 10.3 100050 95
2004-04-29 08:42:58 51°9.241 2°35.923 9.7 9 10.3 100050 95
2004-04-29 08:43:03 51°9.234 2°35.897 10 7 10.3 100050 95
2004-04-29 08:43:08 51°9.228 2°35.87 9.5 6 10.3 100050 95
2004-04-29 08:43:10 51°9.225 2°35.86 9.6 6 10.3 100050 95
2004-04-29 08:43:18 51°9.214 2°35.818 10.4 9 10.3 100050 95
2004-04-29 08:43:22 51°9.209 2°35.797 9.9 11 10.3 100050 95
2004-04-29 08:43:28 51°9.2 2°35.766 9.7 9 10.3 100050 95
2004-04-29 08:43:31 51°9.196 2°35.75 9.4 9 10.3 100040 95
2004-04-29 08:43:38 51°9.186 2°35.714 9.8 10 10.3 100040 95
2004-04-29 08:43:42 51°9.18 2°35.693 9.4 7 10.3 100050 95
2004-04-29 08:43:48 51°9.172 2°35.662 9.5 8 10.3 100050 95
2004-04-29 08:43:52 51°9.166 2°35.641 9.7 13 10.3 100050 95
2004-04-29 08:43:58 51°9.157 2°35.61 9.7 8 10.3 100050 95
2004-04-29 08:44:02 51°9.152 2°35.589 10.6 7 10.3 100040 95
2004-04-29 08:44:07 51°9.144 2°35.564 10.5 7 10.3 100040 95
2004-04-29 08:44:12 51°9.137 2°35.538 10.5 6 10.3 100050 95
2004-04-29 08:44:16 51°9.132 2°35.517 9.9 8 10.3 100050 95
2004-04-29 08:44:23 51°9.122 2°35.481 9.6 6 10.3 100050 95
2004-04-29 08:44:27 51°9.116 2°35.46 10 3 10.3 100050 95
2004-04-29 08:44:32 51°9.109 2°35.434 9.7 2 10.3 100050 95
2004-04-29 08:44:38 51°9.101 2°35.403 10.3 5 10.3 100050 95
2004-04-29 08:44:43 51°9.093 2°35.377 9.9 5 10.3 100040 95
2004-04-29 08:44:47 51°9.088 2°35.356 10.1 3 10.3 100040 95
2004-04-29 08:44:52 51°9.081 2°35.331 9.7 8 10.3 100040 95
2004-04-29 08:44:56 51°9.075 2°35.31 10 8 10.3 100040 95
2004-04-29 08:45:03 51°9.066 2°35.274 9.8 10 10.3 100050 95
2004-04-29 08:45:06 51°9.062 2°35.26 8.6 9 10.3 100050 95
2004-04-29 08:45:12 51°9.055 2°35.234 9 10 10.3 100050 95
2004-04-29 08:45:18 51°9.049 2°35.211 7.8 8 10.3 100050 95
2004-04-29 08:45:22 51°9.045 2°35.196 7.7 9 10.3 100050 95
2004-04-29 08:45:27 51°9.04 2°35.179 7.4 12 10.3 100050 95
2004-04-29 08:45:32 51°9.036 2°35.163 7.2 11 10.3 100050 95
2004-04-29 08:45:38 51°9.031 2°35.145 6.5 12 10.3 100050 95
2004-04-29 08:45:42 51°9.027 2°35.134 6.3 13 10.3 100060 95
2004-04-29 08:45:48 51°9.023 2°35.118 6.4 13 10.3 100060 95
2004-04-29 08:45:52 51°9.02 2°35.109 6.3 14 10.3 100060 95
2004-04-29 08:45:58 51°9.016 2°35.095 5.9 13 10.3 100060 95
2004-04-29 08:46:03 51°9.012 2°35.085 6.3 18 10.3 100060 95
2004-04-29 08:46:07 51°9.009 2°35.077 5.9 15 10.3 100060 95
2004-04-29 08:46:12 51°9.006 2°35.068 5.7 14 10.3 100060 95
2004-04-29 08:46:17 51°9.003 2°35.06 5 14 10.3 100060 95
2004-04-29 08:46:23 51°9 2°35.05 5.1 15 10.3 100060 95
2004-04-29 08:46:27 51°8.997 2°35.044 4.8 12 10.3 100060 95
2004-04-29 08:46:32 51°8.994 2°35.038 4.9 13 10.3 100060 95
2004-04-29 08:46:37 51°8.992 2°35.033 4.1 24 10.3 100060 95
2004-04-29 08:46:43 51°8.99 2°35.029 3.9 26 10.3 100060 95
2004-04-29 08:46:48 51°8.989 2°35.027 3.3 43 10.3 100060 95
2004-04-29 08:46:52 51°8.988 2°35.027 3.2 42 10.3 100060 95
2004-04-29 08:46:58 51°8.988 2°35.027 3.1 50 10.3 100060 95
2004-04-29 08:47:02 51°8.988 2°35.028 3 54 10.3 100060 95
2004-04-29 08:47:07 51°8.989 2°35.029 2.8 61 10.3 100060 95
2004-04-29 08:47:12 51°8.99 2°35.031 2.8 62 10.3 100060 95
2004-04-29 08:47:18 51°8.991 2°35.032 3 63 10.3 100060 95
2004-04-29 08:47:23 51°8.991 2°35.034 2.8 62 10.3 100060 95
2004-04-29 08:47:28 51°8.992 2°35.035 2.8 65 10.3 100060 95
2004-04-29 08:47:32 51°8.993 2°35.037 2.6 66 10.3 100060 95
2004-04-29 08:47:38 51°8.994 2°35.038 2.6 70 10.3 100060 95
2004-04-29 08:47:42 51°8.994 2°35.039 2.6 70 10.2 100060 95
2004-04-29 08:47:48 51°8.995 2°35.041 2.7 72 10.2 100060 95
2004-04-29 08:47:54 51°8.996 2°35.043 2.7 72 10.2 100060 95
2004-04-29 08:47:58 51°8.996 2°35.044 2.2 72 10.2 100060 95
2004-04-29 08:48:03 51°8.997 2°35.045 2.3 73 10.2 100060 95
2004-04-29 08:48:08 51°8.997 2°35.047 2.1 76 10.2 100060 95
2004-04-29 08:48:14 51°8.998 2°35.048 2 76 10.2 100060 95
2004-04-29 08:48:18 51°8.998 2°35.049 2.5 78 10.2 100060 95
2004-04-29 08:48:23 51°8.999 2°35.05 2.1 78 10.2 100060 95
2004-04-29 08:48:28 51°9 2°35.052 2.3 80 10.2 100060 95
2004-04-29 08:48:34 51°9 2°35.053 2.1 80 10.2 100060 95
2004-04-29 08:48:38 51°9 2°35.054 2.1 74 10.2 100060 95
2004-04-29 08:48:43 51°9.001 2°35.056 2.2 76 10.2 100060 95
2004-04-29 08:48:48 51°9.001 2°35.057 2.1 78 10.2 100060 95
2004-04-29 08:48:53 51°9.002 2°35.058 2.6 82 10.2 100060 95
2004-04-29 08:48:58 51°9.002 2°35.06 3 83 10.2 100060 95
2004-04-29 08:49:03 51°9.002 2°35.061 2.7 82 10.2 100060 95
2004-04-29 08:49:08 51°9.003 2°35.062 2.4 73 10.2 100060 95
2004-04-29 08:49:12 51°9.003 2°35.063 2.2 77 10.2 100060 95
2004-04-29 08:49:18 51°9.003 2°35.064 2.6 76 10.2 100060 95
2004-04-29 08:49:22 51°9.003 2°35.065 2.7 76 10.2 100060 95
2004-04-29 08:49:27 51°9.003 2°35.066 2.5 70 10.2 100060 95
2004-04-29 08:49:32 51°9.002 2°35.067 2.2 71 10.2 100060 95
2004-04-29 08:49:38 51°9.002 2°35.068 2.5 69 10.2 100060 95
2004-04-29 08:49:42 51°9.002 2°35.069 2.1 71 10.2 100060 95
2004-04-29 08:49:48 51°9.002 2°35.07 2.9 66 10.2 100060 95
2004-04-29 08:49:52 51°9.001 2°35.071 2.8 64 10.2 100060 95
2004-04-29 08:49:57 51°9 2°35.072 2.5 65 10.2 100060 95
2004-04-29 08:50:03 51°8.999 2°35.073 2.7 62 10.2 100060 95
2004-04-29 08:50:08 51°8.998 2°35.074 2.9 62 10.2 100060 95
2004-04-29 08:50:12 51°8.997 2°35.074 3.2 60 10.2 100060 95
2004-04-29 08:50:18 51°8.996 2°35.075 3.1 59 10.2 100060 95
2004-04-29 08:50:23 51°8.995 2°35.076 3.2 59 10.2 100060 95
2004-04-29 08:50:28 51°8.994 2°35.077 3.1 57 10.2 100060 95
2004-04-29 08:50:32 51°8.993 2°35.077 3 56 10.2 100060 95
2004-04-29 08:50:37 51°8.992 2°35.078 2.9 55 10.2 100060 95
2004-04-29 08:50:43 51°8.991 2°35.079 3 55 10.2 100060 95
2004-04-29 08:50:48 51°8.99 2°35.079 3.1 56 10.2 100060 95
2004-04-29 08:50:52 51°8.989 2°35.08 2.8 56 10.2 100060 95
2004-04-29 08:50:58 51°8.987 2°35.08 3 54 10.2 100060 95
2004-04-29 08:51:02 51°8.986 2°35.08 2.7 54 10.2 100060 95
2004-04-29 08:51:07 51°8.985 2°35.081 3 51 10.2 100060 95
2004-04-29 08:51:12 51°8.983 2°35.081 2.8 51 10.2 100060 95
2004-04-29 08:51:18 51°8.981 2°35.081 3 49 10.2 100060 95
2004-04-29 08:51:22 51°8.979 2°35.081 2.9 56 10.2 100070 95
2004-04-29 08:51:28 51°8.977 2°35.08 3.1 51 10.2 100070 95
2004-04-29 08:51:32 51°8.975 2°35.08 3.1 47 10.2 100070 95
2004-04-29 08:51:38 51°8.973 2°35.079 3.7 45 10.2 100070 95
2004-04-29 08:51:42 51°8.971 2°35.078 3.7 46 10.2 100070 95
2004-04-29 08:51:48 51°8.969 2°35.077 3.8 40 10.2 100070 95
2004-04-29 08:51:52 51°8.967 2°35.076 3.8 42 10.2 100060 95
2004-04-29 08:51:57 51°8.965 2°35.075 3.2 40 10.2 100060 95
2004-04-29 08:52:03 51°8.962 2°35.073 3.5 40 10.2 100060 95
2004-04-29 08:52:08 51°8.96 2°35.072 3.8 41 10.2 100060 95
2004-04-29 08:52:12 51°8.959 2°35.071 3.6 38 10.2 100060 95
2004-04-29 08:52:18 51°8.956 2°35.069 3.8 37 10.2 100060 95
2004-04-29 08:52:22 51°8.955 2°35.067 3.8 37 10.2 100060 95
2004-04-29 08:52:28 51°8.952 2°35.065 4.1 34 10.2 100060 95
2004-04-29 08:52:32 51°8.951 2°35.063 3.8 34 10.2 100060 95
2004-04-29 08:52:38 51°8.949 2°35.06 3.5 30 10.2 100060 95
2004-04-29 08:52:42 51°8.947 2°35.058 3.7 31 10.2 100060 95
2004-04-29 08:52:48 51°8.945 2°35.055 3.8 24 10.2 100060 95
2004-04-29 08:52:52 51°8.944 2°35.052 3.9 26 10.2 100060 95
2004-04-29 08:52:58 51°8.942 2°35.049 3.6 24 10.2 100060 95
2004-04-29 08:53:02 51°8.94 2°35.047 3.6 16 10.2 100070 95
2004-04-29 08:53:08 51°8.939 2°35.043 3.8 21 10.2 100070 95
2004-04-29 08:53:12 51°8.938 2°35.04 3.8 21 10.2 100060 95
2004-04-29 08:53:18 51°8.936 2°35.037 3.6 19 10.2 100060 95
2004-04-29 08:53:23 51°8.935 2°35.033 3.8 18 10.2 100070 95
2004-04-29 08:53:28 51°8.934 2°35.03 3.8 15 10.2 100070 95
2004-04-29 08:53:32 51°8.933 2°35.027 3.9 13 10.2 100070 95
2004-04-29 08:53:38 51°8.932 2°35.022 3.4 8 10.2 100070 95
2004-04-29 08:53:42 51°8.931 2°35.019 3.7 5 10.2 100060 95
2004-04-29 08:53:48 51°8.93 2°35.014 3.5 13 10.2 100060 95
2004-04-29 08:53:52 51°8.93 2°35.011 3.4 13 10.2 100060 95
2004-04-29 08:53:58 51°8.929 2°35.006 3.7 4 10.2 100060 95
2004-04-29 08:54:03 51°8.929 2°35.002 3.7 6 10.2 100060 95
2004-04-29 08:54:08 51°8.929 2°34.998 3.3 2 10.2 100060 95
2004-04-29 08:54:12 51°8.929 2°34.995 3.5 3 10.2 100060 95
2004-04-29 08:54:18 51°8.928 2°34.989 3.5 360 10.2 100060 95
2004-04-29 08:54:22 51°8.929 2°34.986 3.7 358 10.2 100070 95
2004-04-29 08:54:28 51°8.929 2°34.981 4 359 10.2 100070 95
2004-04-29 08:54:31 51°8.929 2°34.978 3.6 357 10.2 100070 95
2004-04-29 08:54:38 51°8.93 2°34.972 3.6 358 10.2 100070 95
2004-04-29 08:54:43 51°8.93 2°34.968 3.6 358 10.2 100070 95
2004-04-29 08:54:48 51°8.931 2°34.964 3.7 357 10.2 100070 95
2004-04-29 08:54:52 51°8.931 2°34.961 3.6 357 10.2 100060 95
2004-04-29 08:54:58 51°8.932 2°34.955 3.6 357 10.2 100060 95
2004-04-29 08:55:02 51°8.933 2°34.952 4.2 358 10.2 100070 95
2004-04-29 08:55:08 51°8.934 2°34.947 3.8 355 10.2 100070 95
2004-04-29 08:55:12 51°8.935 2°34.944 4.3 356 10.2 100060 95
2004-04-29 08:55:16 51°8.935 2°34.94 3.9 355 10.2 100060 95
2004-04-29 08:55:22 51°8.937 2°34.935 3.8 352 10.2 100070 95
2004-04-29 08:55:28 51°8.938 2°34.93 3.7 352 10.2 100070 95
2004-04-29 08:55:32 51°8.939 2°34.927 3.7 351 10.2 100060 95
2004-04-29 08:55:38 51°8.94 2°34.922 3.9 352 10.2 100060 95
2004-04-29 08:55:42 51°8.941 2°34.918 3.8 352 10.2 100070 95
2004-04-29 08:55:48 51°8.942 2°34.913 3.9 349 10.2 100070 95
2004-04-29 08:55:52 51°8.943 2°34.91 4.1 349 10.3 100070 95
2004-04-29 08:55:58 51°8.944 2°34.905 4.1 352 10.3 100070 95
2004-04-29 08:56:03 51°8.945 2°34.9 4.3 352 10.2 100070 95
2004-04-29 08:56:07 51°8.946 2°34.897 3.6 353 10.2 100070 95
2004-04-29 08:56:12 51°8.947 2°34.892 4 353 10.2 100070 95
2004-04-29 08:56:18 51°8.948 2°34.887 4 356 10.2 100070 95
2004-04-29 08:56:22 51°8.949 2°34.884 3.8 357 10.2 100060 95
2004-04-29 08:56:28 51°8.95 2°34.878 3.9 354 10.2 100060 95
2004-04-29 08:56:32 51°8.95 2°34.875 3.9 352 10.2 100060 95
2004-04-29 08:56:38 51°8.952 2°34.87 4.1 353 10.2 100060 95
2004-04-29 08:56:42 51°8.952 2°34.866 4.2 352 10.2 100070 95
2004-04-29 08:56:48 51°8.953 2°34.861 4 356 10.2 100070 95
2004-04-29 08:56:52 51°8.954 2°34.858 3.9 358 10.3 100070 95
2004-04-29 08:56:58 51°8.955 2°34.853 3.7 355 10.3 100070 95
2004-04-29 08:57:02 51°8.955 2°34.849 4 357 10.2 100070 95
2004-04-29 08:57:08 51°8.956 2°34.844 3.7 355 10.2 100070 95
2004-04-29 08:57:12 51°8.956 2°34.84 3.9 357 10.2 100070 95
2004-04-29 08:57:18 51°8.957 2°34.835 3.8 358 10.2 100070 95
2004-04-29 08:57:23 51°8.957 2°34.83 4.2 357 10.2 100070 95
2004-04-29 08:57:28 51°8.958 2°34.826 4.1 357 10.2 100070 95
2004-04-29 08:57:32 51°8.958 2°34.822 3.9 354 10.2 100060 95
2004-04-29 08:57:38 51°8.959 2°34.817 3.7   10.2 100060 95
2004-04-29 08:57:42 51°8.959 2°34.813 4 356 10.2 100070 95
2004-04-29 08:57:47 51°8.959 2°34.809 3.6 358 10.2 100070 95
2004-04-29 08:57:52 51°8.96 2°34.804 4.2 356 10.3 100070 95
2004-04-29 08:57:56 51°8.96 2°34.8 3.9   10.3 100070 95
2004-04-29 08:58:03 51°8.961 2°34.794 3.7 359 10.2 100070 95
2004-04-29 08:58:06 51°8.961 2°34.791 4.1 358 10.2 100070 95
2004-04-29 08:58:12 51°8.962 2°34.785 4.1 353 10.3 100070 95
2004-04-29 08:58:18 51°8.962 2°34.779 4.4 357 10.3 100070 95
2004-04-29 08:58:23 51°8.963 2°34.774 4.2 354 10.2 100070 95
2004-04-29 08:58:27 51°8.963 2°34.77 4 352 10.2 100070 95
2004-04-29 08:58:32 51°8.964 2°34.765 4.2 356 10.3 100060 95
2004-04-29 08:58:38 51°8.964 2°34.76 4.1 353 10.3 100060 95
2004-04-29 08:58:42 51°8.965 2°34.756 3.9 352 10.2 100070 95
2004-04-29 08:58:48 51°8.965 2°34.75 4.2 354 10.2 100070 95
2004-04-29 08:58:52 51°8.966 2°34.746 4 345 10.3 100070 95
2004-04-29 08:58:58 51°8.966 2°34.74 3.8 351 10.3 100070 95
2004-04-29 08:59:03 51°8.967 2°34.734 4 352 10.2 100070 95
2004-04-29 08:59:08 51°8.967 2°34.729 3.7 354 10.2 100070 95
2004-04-29 08:59:12 51°8.968 2°34.725 3.9 353 10.2 100070 95
2004-04-29 08:59:18 51°8.968 2°34.719 3.9 354 10.2 100070 95
2004-04-29 08:59:22 51°8.968 2°34.715 3.7 352 10.3 100070 95
2004-04-29 08:59:28 51°8.969 2°34.709 3.5 354 10.3 100070 95
2004-04-29 08:59:32 51°8.969 2°34.705 3.7 353 10.3 100070 95
2004-04-29 08:59:38 51°8.97 2°34.699 3.8 356 10.3 100070 95
2004-04-29 08:59:43 51°8.97 2°34.694 3.6 3 10.3 100070 95
2004-04-29 08:59:48 51°8.97 2°34.689 3.8 4 10.3 100070 95
2004-04-29 08:59:52 51°8.971 2°34.685 3.6 4 10.3 100070 95
2004-04-29 08:59:58 51°8.971 2°34.678 4 3 10.3 100070 95
2004-04-29 09:00:03 51°8.971 2°34.673 4.1 7 10.3 100070 95
2004-04-29 09:00:07 51°8.971 2°34.669 3.7 4 10.3 100070 95
2004-04-29 09:00:12 51°8.971 2°34.664 3.7 3 10.3 100070 95
2004-04-29 09:00:22 51°8.972 2°34.654 3.6 11 10.3 100070 95
2004-04-29 09:00:30 51°8.972 2°34.646 3.5 11 10.3 100070 95
2004-04-29 09:00:34 51°8.972 2°34.642 3.5 7 10.3 100070 95
2004-04-29 09:00:40 51°8.971 2°34.636 3.8 5 10.3 100070 95
2004-04-29 09:00:44 51°8.971 2°34.632 3.8 1 10.3 100070 95
2004-04-29 09:00:50 51°8.971 2°34.626 3.8 10 10.3 100070 95
2004-04-29 09:00:55 51°8.971 2°34.621 3.7 7 10.3 100070 95
2004-04-29 09:00:59 51°8.971 2°34.618 3.7 10 10.3 100070 95
2004-04-29 09:01:04 51°8.97 2°34.613 3.7 5 10.3 100070 95
2004-04-29 09:01:09 51°8.97 2°34.608 3.4 1 10.3 100070 95
2004-04-29 09:01:15 51°8.97 2°34.602 3.3 6 10.3 100070 95
2004-04-29 09:01:19 51°8.969 2°34.599 3.5 4 10.3 100070 95
2004-04-29 09:01:24 51°8.969 2°34.594 3.5 13 10.3 100070 95
2004-04-29 09:01:29 51°8.968 2°34.589 3.6 11 10.3 100070 95
2004-04-29 09:01:35 51°8.968 2°34.583 3.6 13 10.3 100070 95
2004-04-29 09:01:39 51°8.967 2°34.58 4 8 10.3 100070 95
2004-04-29 09:01:44 51°8.967 2°34.575 3.5 7 10.3 100070 95
2004-04-29 09:01:49 51°8.967 2°34.57 3.9 9 10.3 100070 95
2004-04-29 09:01:54 51°8.966 2°34.566 3.6 8 10.3 100070 95
2004-04-29 09:01:59 51°8.965 2°34.561 3.5 8 10.3 100070 95
2004-04-29 09:02:04 51°8.965 2°34.556 3.5 6 10.3 100070 95
2004-04-29 09:02:10 51°8.964 2°34.551 3.7 6 10.3 100070 95
2004-04-29 09:02:15 51°8.964 2°34.546 3.7 10 10.3 100070 95
2004-04-29 09:02:19 51°8.963 2°34.542 3.7 8 10.3 100070 95
2004-04-29 09:02:25 51°8.962 2°34.536 3.6 11 10.3 100070 95
2004-04-29 09:02:30 51°8.962 2°34.532 3.7 12 10.3 100070 95
2004-04-29 09:02:34 51°8.962 2°34.528 3.3 8 10.3 100070 95
2004-04-29 09:02:40 51°8.961 2°34.522 3.1 11 10.3 100070 95
2004-04-29 09:02:44 51°8.961 2°34.518 3.3 10 10.3 100070 95
2004-04-29 09:02:50 51°8.96 2°34.513 3.4 13 10.3 100060 95
2004-04-29 09:02:55 51°8.959 2°34.508 3.3 14 10.3 100060 95
2004-04-29 09:02:59 51°8.959 2°34.504 3.5 12 10.3 100070 95
2004-04-29 09:03:04 51°8.958 2°34.5 3.4 13 10.3 100070 95
2004-04-29 09:03:10 51°8.958 2°34.494 3.4 13 10.3 100070 95
2004-04-29 09:03:15 51°8.957 2°34.489 3.7 14 10.3 100070 95
2004-04-29 09:03:18 51°8.957 2°34.487 3.5 16 10.3 100070 95
2004-04-29 09:03:25 51°8.956 2°34.48 3.4 17 10.3 100070 95
2004-04-29 09:03:29 51°8.955 2°34.476 3.3 15 10.3 100070 95
2004-04-29 09:03:34 51°8.955 2°34.472 3.4 13 10.3 100070 95
2004-04-29 09:03:39 51°8.954 2°34.467 4 11 10.3 100070 95
2004-04-29 09:03:44 51°8.953 2°34.463 4 8 10.3 100070 95
2004-04-29 09:03:50 51°8.952 2°34.457 3.9 12 10.2 100070 95
2004-04-29 09:03:54 51°8.951 2°34.453 3.7 12 10.2 100070 95
2004-04-29 09:03:59 51°8.95 2°34.449 3.6 13 10.3 100060 95
2004-04-29 09:04:05 51°8.95 2°34.443 3.5 13 10.3 100060 95
2004-04-29 09:04:10 51°8.949 2°34.439 3.9 11 10.3 100070 95
2004-04-29 09:04:15 51°8.948 2°34.434 3.6 15 10.3 100070 95
2004-04-29 09:04:19 51°8.948 2°34.431 3.8 13 10.2 100070 95
2004-04-29 09:04:23 51°8.947 2°34.427 3.8 7 10.2 100070 95
2004-04-29 09:04:30 51°8.946 2°34.421 3.8 8 10.2 100070 95
2004-04-29 09:04:34 51°8.946 2°34.418 3.9 9 10.2 100070 95
2004-04-29 09:04:38 51°8.945 2°34.414 3.9 9 10.2 100070 95
2004-04-29 09:04:44 51°8.944 2°34.408 3.7 7 10.2 100070 95
2004-04-29 09:04:50 51°8.943 2°34.403 3.5 8 10.3 100070 95
2004-04-29 09:04:55 51°8.942 2°34.398 3.7 9 10.3 100070 95
2004-04-29 09:05:00 51°8.942 2°34.394 3.6 8 10.3 100070 95
2004-04-29 09:05:05 51°8.941 2°34.389 3.4 7 10.3 100070 95
2004-04-29 09:05:09 51°8.94 2°34.386 3.6 9 10.3 100070 95
2004-04-29 09:05:15 51°8.939 2°34.38 3.4 10 10.3 100070 95
2004-04-29 09:05:20 51°8.938 2°34.376 3.6 8 10.2 100070 95
2004-04-29 09:05:24 51°8.937 2°34.373 4 9 10.2 100070 95
2004-04-29 09:05:30 51°8.936 2°34.367 3.8 12 10.2 100070 95
2004-04-29 09:05:35 51°8.935 2°34.363 3.9 14 10.2 100070 95
2004-04-29 09:05:39 51°8.934 2°34.359 3.8 11 10.2 100070 95
2004-04-29 09:05:43 51°8.933 2°34.356 3.5 8 10.2 100070 95
2004-04-29 09:05:50 51°8.932 2°34.349 3.5 12 10.3 100070 95
2004-04-29 09:05:54 51°8.931 2°34.346 3.7 13 10.3 100070 95
2004-04-29 09:05:59 51°8.93 2°34.342 3.7 14 10.3 100070 95
2004-04-29 09:06:05 51°8.928 2°34.337 3.8 14 10.3 100070 95